sensor_id;sensor_type;location;lat;lon;timestamp;P1;durP1;ratioP1;P2;durP2;ratioP2
74259;SDS011;62630;55.874;37.516;2023-02-11T00:02:11;9.73;;;5.30;;
74259;SDS011;62630;55.874;37.516;2023-02-11T00:04:37;12.93;;;5.53;;
74259;SDS011;62630;55.874;37.516;2023-02-11T00:07:02;10.48;;;5.32;;
74259;SDS011;62630;55.874;37.516;2023-02-11T00:09:28;13.57;;;5.45;;
74259;SDS011;62630;55.874;37.516;2023-02-11T00:11:56;10.80;;;5.22;;
74259;SDS011;62630;55.874;37.516;2023-02-11T00:14:21;14.68;;;5.15;;
74259;SDS011;62630;55.874;37.516;2023-02-11T00:16:50;10.75;;;4.38;;
74259;SDS011;62630;55.874;37.516;2023-02-11T00:19:16;9.52;;;4.95;;
74259;SDS011;62630;55.874;37.516;2023-02-11T00:21:41;14.55;;;5.53;;
74259;SDS011;62630;55.874;37.516;2023-02-11T00:24:07;11.82;;;5.43;;
74259;SDS011;62630;55.874;37.516;2023-02-11T00:26:33;8.52;;;4.25;;
74259;SDS011;62630;55.874;37.516;2023-02-11T00:28:59;16.83;;;5.82;;
74259;SDS011;62630;55.874;37.516;2023-02-11T00:31:28;10.13;;;5.38;;
74259;SDS011;62630;55.874;37.516;2023-02-11T00:33:54;11.57;;;4.80;;
74259;SDS011;62630;55.874;37.516;2023-02-11T00:36:21;11.38;;;4.80;;
74259;SDS011;62630;55.874;37.516;2023-02-11T00:38:49;12.07;;;5.43;;
74259;SDS011;62630;55.874;37.516;2023-02-11T00:41:15;13.52;;;5.10;;
74259;SDS011;62630;55.874;37.516;2023-02-11T00:43:42;11.73;;;4.95;;
74259;SDS011;62630;55.874;37.516;2023-02-11T00:46:08;10.48;;;4.78;;
74259;SDS011;62630;55.874;37.516;2023-02-11T00:48:34;14.60;;;5.63;;
74259;SDS011;62630;55.874;37.516;2023-02-11T00:51:00;9.98;;;5.03;;
74259;SDS011;62630;55.874;37.516;2023-02-11T00:53:26;9.32;;;4.53;;
74259;SDS011;62630;55.874;37.516;2023-02-11T00:55:51;12.77;;;4.60;;
74259;SDS011;62630;55.874;37.516;2023-02-11T00:58:17;11.25;;;4.35;;
74259;SDS011;62630;55.874;37.516;2023-02-11T01:00:43;14.77;;;4.80;;
74259;SDS011;62630;55.874;37.516;2023-02-11T01:03:08;10.27;;;3.92;;
74259;SDS011;62630;55.874;37.516;2023-02-11T01:05:34;12.13;;;5.03;;
74259;SDS011;62630;55.874;37.516;2023-02-11T01:07:59;8.20;;;3.78;;
74259;SDS011;62630;55.874;37.516;2023-02-11T01:10:25;9.63;;;4.10;;
74259;SDS011;62630;55.874;37.516;2023-02-11T01:12:51;10.25;;;4.15;;
74259;SDS011;62630;55.874;37.516;2023-02-11T01:15:17;11.30;;;4.60;;
74259;SDS011;62630;55.874;37.516;2023-02-11T01:17:43;10.10;;;3.83;;
74259;SDS011;62630;55.874;37.516;2023-02-11T01:20:12;11.10;;;4.55;;
74259;SDS011;62630;55.874;37.516;2023-02-11T01:22:40;10.45;;;4.07;;
74259;SDS011;62630;55.874;37.516;2023-02-11T01:25:06;8.30;;;3.75;;
74259;SDS011;62630;55.874;37.516;2023-02-11T01:27:32;8.95;;;4.22;;
74259;SDS011;62630;55.874;37.516;2023-02-11T01:29:58;9.93;;;3.95;;
74259;SDS011;62630;55.874;37.516;2023-02-11T01:32:24;11.48;;;3.75;;
74259;SDS011;62630;55.874;37.516;2023-02-11T01:34:49;12.43;;;4.13;;
74259;SDS011;62630;55.874;37.516;2023-02-11T01:37:15;9.30;;;4.15;;
74259;SDS011;62630;55.874;37.516;2023-02-11T01:39:40;9.55;;;3.78;;
74259;SDS011;62630;55.874;37.516;2023-02-11T01:42:06;8.20;;;3.42;;
74259;SDS011;62630;55.874;37.516;2023-02-11T01:44:36;9.05;;;3.50;;
74259;SDS011;62630;55.874;37.516;2023-02-11T01:47:04;10.45;;;4.30;;
74259;SDS011;62630;55.874;37.516;2023-02-11T01:49:31;10.30;;;3.10;;
74259;SDS011;62630;55.874;37.516;2023-02-11T01:52:01;10.85;;;3.38;;
74259;SDS011;62630;55.874;37.516;2023-02-11T01:54:35;9.73;;;3.42;;
74259;SDS011;62630;55.874;37.516;2023-02-11T01:57:23;12.07;;;3.95;;
74259;SDS011;62630;55.874;37.516;2023-02-11T02:08:02;9.07;;;3.05;;
74259;SDS011;62630;55.874;37.516;2023-02-11T02:10:42;10.18;;;3.00;;
74259;SDS011;62630;55.874;37.516;2023-02-11T02:13:09;6.35;;;2.97;;
74259;SDS011;62630;55.874;37.516;2023-02-11T02:15:36;6.25;;;3.10;;
74259;SDS011;62630;55.874;37.516;2023-02-11T02:18:26;7.95;;;2.95;;
74259;SDS011;62630;55.874;37.516;2023-02-11T02:29:09;6.60;;;2.85;;
74259;SDS011;62630;55.874;37.516;2023-02-11T02:34:57;7.72;;;2.25;;
74259;SDS011;62630;55.874;37.516;2023-02-11T02:37:43;6.60;;;2.80;;
74259;SDS011;62630;55.874;37.516;2023-02-11T02:40:19;5.22;;;2.50;;
74259;SDS011;62630;55.874;37.516;2023-02-11T02:42:49;10.80;;;2.95;;
74259;SDS011;62630;55.874;37.516;2023-02-11T02:45:17;8.38;;;2.85;;
74259;SDS011;62630;55.874;37.516;2023-02-11T02:47:43;7.03;;;2.92;;
74259;SDS011;62630;55.874;37.516;2023-02-11T02:50:09;10.50;;;3.70;;
74259;SDS011;62630;55.874;37.516;2023-02-11T02:58:16;6.07;;;3.03;;
74259;SDS011;62630;55.874;37.516;2023-02-11T03:00:58;7.20;;;2.47;;
74259;SDS011;62630;55.874;37.516;2023-02-11T03:06:54;5.55;;;2.25;;
74259;SDS011;62630;55.874;37.516;2023-02-11T03:12:06;7.13;;;2.13;;
74259;SDS011;62630;55.874;37.516;2023-02-11T03:14:34;10.27;;;2.67;;
74259;SDS011;62630;55.874;37.516;2023-02-11T03:17:01;7.68;;;3.05;;
74259;SDS011;62630;55.874;37.516;2023-02-11T03:19:38;6.68;;;1.92;;
74259;SDS011;62630;55.874;37.516;2023-02-11T03:22:10;6.40;;;2.38;;
74259;SDS011;62630;55.874;37.516;2023-02-11T03:24:41;4.80;;;2.35;;
74259;SDS011;62630;55.874;37.516;2023-02-11T03:27:29;9.80;;;2.72;;
74259;SDS011;62630;55.874;37.516;2023-02-11T03:30:00;9.48;;;2.92;;
74259;SDS011;62630;55.874;37.516;2023-02-11T03:32:36;6.93;;;2.53;;
74259;SDS011;62630;55.874;37.516;2023-02-11T03:35:15;4.82;;;2.20;;
74259;SDS011;62630;55.874;37.516;2023-02-11T03:37:54;10.63;;;2.80;;
74259;SDS011;62630;55.874;37.516;2023-02-11T03:40:25;6.32;;;2.20;;
74259;SDS011;62630;55.874;37.516;2023-02-11T03:43:01;5.72;;;2.38;;
74259;SDS011;62630;55.874;37.516;2023-02-11T03:45:31;5.65;;;2.13;;
74259;SDS011;62630;55.874;37.516;2023-02-11T03:48:00;10.32;;;2.35;;
74259;SDS011;62630;55.874;37.516;2023-02-11T03:50:33;6.80;;;2.30;;
74259;SDS011;62630;55.874;37.516;2023-02-11T03:53:01;6.50;;;2.38;;
74259;SDS011;62630;55.874;37.516;2023-02-11T03:55:27;7.10;;;2.33;;
74259;SDS011;62630;55.874;37.516;2023-02-11T03:57:57;6.47;;;2.00;;
74259;SDS011;62630;55.874;37.516;2023-02-11T04:00:34;9.55;;;2.40;;
74259;SDS011;62630;55.874;37.516;2023-02-11T04:03:03;5.25;;;1.95;;
74259;SDS011;62630;55.874;37.516;2023-02-11T04:05:29;8.02;;;2.05;;
74259;SDS011;62630;55.874;37.516;2023-02-11T04:07:55;8.40;;;2.63;;
74259;SDS011;62630;55.874;37.516;2023-02-11T04:10:21;4.68;;;1.60;;
74259;SDS011;62630;55.874;37.516;2023-02-11T04:12:47;5.47;;;2.35;;
74259;SDS011;62630;55.874;37.516;2023-02-11T04:15:15;3.90;;;2.03;;
74259;SDS011;62630;55.874;37.516;2023-02-11T04:17:41;6.85;;;2.55;;
74259;SDS011;62630;55.874;37.516;2023-02-11T04:20:10;4.57;;;1.85;;
74259;SDS011;62630;55.874;37.516;2023-02-11T04:22:42;8.38;;;1.55;;
74259;SDS011;62630;55.874;37.516;2023-02-11T04:25:10;7.43;;;1.98;;
74259;SDS011;62630;55.874;37.516;2023-02-11T04:27:36;3.53;;;1.83;;
74259;SDS011;62630;55.874;37.516;2023-02-11T04:30:05;4.38;;;2.10;;
74259;SDS011;62630;55.874;37.516;2023-02-11T04:32:36;6.78;;;1.98;;
74259;SDS011;62630;55.874;37.516;2023-02-11T04:35:01;3.90;;;2.05;;
74259;SDS011;62630;55.874;37.516;2023-02-11T04:37:30;3.47;;;1.83;;
74259;SDS011;62630;55.874;37.516;2023-02-11T04:39:55;7.90;;;1.80;;
74259;SDS011;62630;55.874;37.516;2023-02-11T04:42:22;7.35;;;2.40;;
74259;SDS011;62630;55.874;37.516;2023-02-11T04:44:51;5.78;;;1.85;;
74259;SDS011;62630;55.874;37.516;2023-02-11T04:47:16;7.55;;;1.90;;
74259;SDS011;62630;55.874;37.516;2023-02-11T04:49:42;2.03;;;1.25;;
74259;SDS011;62630;55.874;37.516;2023-02-11T04:52:08;3.83;;;1.67;;
74259;SDS011;62630;55.874;37.516;2023-02-11T04:54:34;4.00;;;1.63;;
74259;SDS011;62630;55.874;37.516;2023-02-11T04:57:00;5.82;;;1.67;;
74259;SDS011;62630;55.874;37.516;2023-02-11T04:59:26;3.58;;;1.38;;
74259;SDS011;62630;55.874;37.516;2023-02-11T05:01:51;5.72;;;1.88;;
74259;SDS011;62630;55.874;37.516;2023-02-11T05:04:17;6.63;;;2.15;;
74259;SDS011;62630;55.874;37.516;2023-02-11T05:06:42;5.20;;;2.08;;
74259;SDS011;62630;55.874;37.516;2023-02-11T05:09:09;4.68;;;1.85;;
74259;SDS011;62630;55.874;37.516;2023-02-11T05:11:36;7.05;;;1.90;;
74259;SDS011;62630;55.874;37.516;2023-02-11T05:14:03;5.28;;;1.85;;
74259;SDS011;62630;55.874;37.516;2023-02-11T05:16:29;6.57;;;1.73;;
74259;SDS011;62630;55.874;37.516;2023-02-11T05:18:55;4.80;;;1.75;;
74259;SDS011;62630;55.874;37.516;2023-02-11T05:21:21;6.65;;;2.25;;
74259;SDS011;62630;55.874;37.516;2023-02-11T05:23:46;7.95;;;1.65;;
74259;SDS011;62630;55.874;37.516;2023-02-11T05:26:13;6.10;;;2.42;;
74259;SDS011;62630;55.874;37.516;2023-02-11T05:28:39;9.68;;;1.42;;
74259;SDS011;62630;55.874;37.516;2023-02-11T05:31:04;7.13;;;1.98;;
74259;SDS011;62630;55.874;37.516;2023-02-11T05:33:30;4.82;;;1.60;;
74259;SDS011;62630;55.874;37.516;2023-02-11T05:36:06;5.53;;;1.73;;
74259;SDS011;62630;55.874;37.516;2023-02-11T05:38:33;4.55;;;1.48;;
74259;SDS011;62630;55.874;37.516;2023-02-11T05:40:59;6.82;;;1.80;;
74259;SDS011;62630;55.874;37.516;2023-02-11T05:43:25;5.63;;;1.70;;
74259;SDS011;62630;55.874;37.516;2023-02-11T05:45:51;5.45;;;1.90;;
74259;SDS011;62630;55.874;37.516;2023-02-11T05:48:17;6.00;;;2.00;;
74259;SDS011;62630;55.874;37.516;2023-02-11T05:50:43;4.22;;;1.70;;
74259;SDS011;62630;55.874;37.516;2023-02-11T05:53:08;9.25;;;1.88;;
74259;SDS011;62630;55.874;37.516;2023-02-11T05:55:34;6.32;;;2.13;;
74259;SDS011;62630;55.874;37.516;2023-02-11T05:57:59;5.07;;;1.98;;
74259;SDS011;62630;55.874;37.516;2023-02-11T06:00:25;9.13;;;2.22;;
74259;SDS011;62630;55.874;37.516;2023-02-11T06:02:51;4.32;;;1.90;;
74259;SDS011;62630;55.874;37.516;2023-02-11T06:05:16;8.60;;;2.25;;
74259;SDS011;62630;55.874;37.516;2023-02-11T06:07:42;5.65;;;1.75;;
74259;SDS011;62630;55.874;37.516;2023-02-11T06:10:08;6.85;;;2.20;;
74259;SDS011;62630;55.874;37.516;2023-02-11T06:12:35;7.05;;;2.67;;
74259;SDS011;62630;55.874;37.516;2023-02-11T06:15:01;8.52;;;2.15;;
74259;SDS011;62630;55.874;37.516;2023-02-11T06:17:26;7.18;;;2.15;;
74259;SDS011;62630;55.874;37.516;2023-02-11T06:19:57;7.15;;;2.63;;
74259;SDS011;62630;55.874;37.516;2023-02-11T06:22:22;3.83;;;1.85;;
74259;SDS011;62630;55.874;37.516;2023-02-11T06:24:48;4.65;;;1.92;;
74259;SDS011;62630;55.874;37.516;2023-02-11T06:27:13;3.13;;;1.92;;
74259;SDS011;62630;55.874;37.516;2023-02-11T06:29:39;5.13;;;1.85;;
74259;SDS011;62630;55.874;37.516;2023-02-11T06:32:04;5.03;;;2.03;;
74259;SDS011;62630;55.874;37.516;2023-02-11T06:34:33;6.25;;;2.03;;
74259;SDS011;62630;55.874;37.516;2023-02-11T06:36:59;5.65;;;1.98;;
74259;SDS011;62630;55.874;37.516;2023-02-11T06:39:24;8.40;;;2.22;;
74259;SDS011;62630;55.874;37.516;2023-02-11T06:41:50;8.32;;;2.35;;
74259;SDS011;62630;55.874;37.516;2023-02-11T06:44:15;4.22;;;1.67;;
74259;SDS011;62630;55.874;37.516;2023-02-11T06:46:41;5.40;;;2.05;;
74259;SDS011;62630;55.874;37.516;2023-02-11T06:49:06;7.03;;;1.83;;
74259;SDS011;62630;55.874;37.516;2023-02-11T06:51:32;7.10;;;2.22;;
74259;SDS011;62630;55.874;37.516;2023-02-11T06:53:57;6.22;;;2.33;;
74259;SDS011;62630;55.874;37.516;2023-02-11T06:56:23;5.82;;;1.98;;
74259;SDS011;62630;55.874;37.516;2023-02-11T06:58:53;7.97;;;2.45;;
74259;SDS011;62630;55.874;37.516;2023-02-11T07:01:20;4.95;;;2.08;;
74259;SDS011;62630;55.874;37.516;2023-02-11T07:03:46;4.47;;;1.77;;
74259;SDS011;62630;55.874;37.516;2023-02-11T07:06:13;11.45;;;2.22;;
74259;SDS011;62630;55.874;37.516;2023-02-11T07:08:40;6.13;;;2.20;;
74259;SDS011;62630;55.874;37.516;2023-02-11T07:11:14;6.70;;;2.50;;
74259;SDS011;62630;55.874;37.516;2023-02-11T07:13:41;7.75;;;2.05;;
74259;SDS011;62630;55.874;37.516;2023-02-11T07:16:08;4.53;;;1.75;;
74259;SDS011;62630;55.874;37.516;2023-02-11T07:18:36;6.95;;;2.30;;
74259;SDS011;62630;55.874;37.516;2023-02-11T07:21:18;3.03;;;1.70;;
74259;SDS011;62630;55.874;37.516;2023-02-11T07:23:49;7.75;;;2.28;;
74259;SDS011;62630;55.874;37.516;2023-02-11T07:26:16;7.97;;;2.28;;
74259;SDS011;62630;55.874;37.516;2023-02-11T07:28:44;5.75;;;2.40;;
74259;SDS011;62630;55.874;37.516;2023-02-11T07:31:17;7.50;;;2.15;;
74259;SDS011;62630;55.874;37.516;2023-02-11T07:33:44;6.03;;;1.90;;
74259;SDS011;62630;55.874;37.516;2023-02-11T07:36:10;5.18;;;2.25;;
74259;SDS011;62630;55.874;37.516;2023-02-11T07:38:37;6.38;;;2.50;;
74259;SDS011;62630;55.874;37.516;2023-02-11T07:41:04;8.02;;;2.85;;
74259;SDS011;62630;55.874;37.516;2023-02-11T07:43:32;5.30;;;2.55;;
74259;SDS011;62630;55.874;37.516;2023-02-11T07:45:58;6.18;;;2.60;;
74259;SDS011;62630;55.874;37.516;2023-02-11T07:48:26;5.95;;;2.85;;
74259;SDS011;62630;55.874;37.516;2023-02-11T07:50:52;5.30;;;2.58;;
74259;SDS011;62630;55.874;37.516;2023-02-11T07:53:18;4.90;;;2.35;;
74259;SDS011;62630;55.874;37.516;2023-02-11T07:55:43;5.40;;;2.70;;
74259;SDS011;62630;55.874;37.516;2023-02-11T07:58:09;5.40;;;2.85;;
74259;SDS011;62630;55.874;37.516;2023-02-11T08:00:34;9.80;;;3.05;;
74259;SDS011;62630;55.874;37.516;2023-02-11T08:03:00;9.93;;;3.35;;
74259;SDS011;62630;55.874;37.516;2023-02-11T08:05:25;6.32;;;2.60;;
74259;SDS011;62630;55.874;37.516;2023-02-11T08:07:51;7.95;;;2.55;;
74259;SDS011;62630;55.874;37.516;2023-02-11T08:10:18;8.63;;;3.20;;
74259;SDS011;62630;55.874;37.516;2023-02-11T08:12:44;6.93;;;3.17;;
74259;SDS011;62630;55.874;37.516;2023-02-11T08:15:10;10.90;;;3.60;;
74259;SDS011;62630;55.874;37.516;2023-02-11T08:17:35;9.05;;;2.65;;
74259;SDS011;62630;55.874;37.516;2023-02-11T08:20:02;8.35;;;3.22;;
74259;SDS011;62630;55.874;37.516;2023-02-11T08:22:32;6.13;;;2.97;;
74259;SDS011;62630;55.874;37.516;2023-02-11T08:24:58;11.02;;;3.60;;
74259;SDS011;62630;55.874;37.516;2023-02-11T08:27:24;7.55;;;3.85;;
74259;SDS011;62630;55.874;37.516;2023-02-11T08:29:51;10.23;;;3.72;;
74259;SDS011;62630;55.874;37.516;2023-02-11T08:32:17;7.45;;;3.47;;
74259;SDS011;62630;55.874;37.516;2023-02-11T08:34:43;12.40;;;3.92;;
74259;SDS011;62630;55.874;37.516;2023-02-11T08:37:09;11.63;;;3.05;;
74259;SDS011;62630;55.874;37.516;2023-02-11T08:39:35;12.00;;;3.75;;
74259;SDS011;62630;55.874;37.516;2023-02-11T08:42:00;7.72;;;3.13;;
74259;SDS011;62630;55.874;37.516;2023-02-11T08:44:26;11.05;;;3.55;;
74259;SDS011;62630;55.874;37.516;2023-02-11T08:46:52;7.47;;;3.08;;
74259;SDS011;62630;55.874;37.516;2023-02-11T08:49:18;8.35;;;3.70;;
74259;SDS011;62630;55.874;37.516;2023-02-11T08:51:45;6.35;;;3.10;;
74259;SDS011;62630;55.874;37.516;2023-02-11T08:54:11;11.63;;;4.13;;
74259;SDS011;62630;55.874;37.516;2023-02-11T08:56:37;8.80;;;3.47;;
74259;SDS011;62630;55.874;37.516;2023-02-11T08:59:03;8.50;;;3.13;;
74259;SDS011;62630;55.874;37.516;2023-02-11T09:01:29;11.50;;;3.80;;
74259;SDS011;62630;55.874;37.516;2023-02-11T09:03:56;5.53;;;3.33;;
74259;SDS011;62630;55.874;37.516;2023-02-11T09:06:23;8.40;;;3.85;;
74259;SDS011;62630;55.874;37.516;2023-02-11T09:08:50;6.65;;;3.22;;
74259;SDS011;62630;55.874;37.516;2023-02-11T09:11:18;6.70;;;3.25;;
74259;SDS011;62630;55.874;37.516;2023-02-11T09:13:46;5.80;;;2.78;;
74259;SDS011;62630;55.874;37.516;2023-02-11T09:16:16;10.23;;;3.03;;
74259;SDS011;62630;55.874;37.516;2023-02-11T09:18:43;9.35;;;3.55;;
74259;SDS011;62630;55.874;37.516;2023-02-11T09:21:09;10.00;;;2.85;;
74259;SDS011;62630;55.874;37.516;2023-02-11T09:23:36;7.55;;;3.10;;
74259;SDS011;62630;55.874;37.516;2023-02-11T09:26:05;7.47;;;3.13;;
74259;SDS011;62630;55.874;37.516;2023-02-11T09:28:32;8.57;;;3.40;;
74259;SDS011;62630;55.874;37.516;2023-02-11T09:30:57;6.95;;;3.35;;
74259;SDS011;62630;55.874;37.516;2023-02-11T09:33:23;6.15;;;2.63;;
74259;SDS011;62630;55.874;37.516;2023-02-11T09:35:48;7.70;;;3.10;;
74259;SDS011;62630;55.874;37.516;2023-02-11T09:38:14;6.85;;;3.88;;
74259;SDS011;62630;55.874;37.516;2023-02-11T09:40:43;9.52;;;4.25;;
74259;SDS011;62630;55.874;37.516;2023-02-11T09:43:13;12.90;;;3.95;;
74259;SDS011;62630;55.874;37.516;2023-02-11T09:45:43;13.05;;;3.97;;
74259;SDS011;62630;55.874;37.516;2023-02-11T09:48:12;9.85;;;4.13;;
74259;SDS011;62630;55.874;37.516;2023-02-11T09:50:42;8.10;;;3.47;;
74259;SDS011;62630;55.874;37.516;2023-02-11T09:53:24;7.93;;;3.28;;
74259;SDS011;62630;55.874;37.516;2023-02-11T09:55:52;9.35;;;4.00;;
74259;SDS011;62630;55.874;37.516;2023-02-11T09:58:26;10.95;;;4.10;;
74259;SDS011;62630;55.874;37.516;2023-02-11T10:04:06;7.90;;;3.42;;
74259;SDS011;62630;55.874;37.516;2023-02-11T10:06:55;9.52;;;3.80;;
74259;SDS011;62630;55.874;37.516;2023-02-11T10:12:27;11.45;;;3.95;;
74259;SDS011;62630;55.874;37.516;2023-02-11T10:15:15;11.55;;;3.42;;
74259;SDS011;62630;55.874;37.516;2023-02-11T10:23:12;7.95;;;3.70;;
74259;SDS011;62630;55.874;37.516;2023-02-11T10:25:50;10.05;;;3.97;;
74259;SDS011;62630;55.874;37.516;2023-02-11T10:28:34;6.65;;;3.10;;
74259;SDS011;62630;55.874;37.516;2023-02-11T10:31:08;8.68;;;3.30;;
74259;SDS011;62630;55.874;37.516;2023-02-11T10:36:20;6.53;;;3.13;;
74259;SDS011;62630;55.874;37.516;2023-02-11T10:38:50;9.15;;;3.50;;
74259;SDS011;62630;55.874;37.516;2023-02-11T10:41:18;10.77;;;3.13;;
74259;SDS011;62630;55.874;37.516;2023-02-11T10:43:46;8.27;;;3.55;;
74259;SDS011;62630;55.874;37.516;2023-02-11T10:46:23;7.15;;;3.28;;
74259;SDS011;62630;55.874;37.516;2023-02-11T10:48:55;9.48;;;3.65;;
74259;SDS011;62630;55.874;37.516;2023-02-11T10:51:22;8.38;;;3.60;;
74259;SDS011;62630;55.874;37.516;2023-02-11T10:56:44;9.45;;;4.15;;
74259;SDS011;62630;55.874;37.516;2023-02-11T10:59:27;10.68;;;3.67;;
74259;SDS011;62630;55.874;37.516;2023-02-11T11:01:59;12.75;;;4.25;;
74259;SDS011;62630;55.874;37.516;2023-02-11T11:07:37;8.98;;;3.83;;
74259;SDS011;62630;55.874;37.516;2023-02-11T11:09:59;8.70;;;4.30;;
74259;SDS011;62630;55.874;37.516;2023-02-11T11:15:18;11.88;;;4.88;;
74259;SDS011;62630;55.874;37.516;2023-02-11T11:17:47;11.80;;;3.67;;
74259;SDS011;62630;55.874;37.516;2023-02-11T11:23:16;14.27;;;4.35;;
74259;SDS011;62630;55.874;37.516;2023-02-11T11:25:40;12.32;;;4.55;;
74259;SDS011;62630;55.874;37.516;2023-02-11T11:28:17;10.52;;;3.90;;
74259;SDS011;62630;55.874;37.516;2023-02-11T11:30:46;10.00;;;3.30;;
74259;SDS011;62630;55.874;37.516;2023-02-11T11:33:16;12.77;;;4.35;;
74259;SDS011;62630;55.874;37.516;2023-02-11T11:35:53;8.85;;;4.25;;
74259;SDS011;62630;55.874;37.516;2023-02-11T11:38:23;13.50;;;4.00;;
74259;SDS011;62630;55.874;37.516;2023-02-11T11:46:51;7.72;;;4.07;;
74259;SDS011;62630;55.874;37.516;2023-02-11T11:53:28;12.80;;;4.90;;
74259;SDS011;62630;55.874;37.516;2023-02-11T11:55:54;12.40;;;4.80;;
74259;SDS011;62630;55.874;37.516;2023-02-11T11:58:26;8.15;;;3.78;;
74259;SDS011;62630;55.874;37.516;2023-02-11T12:09:52;7.70;;;4.10;;
74259;SDS011;62630;55.874;37.516;2023-02-11T12:31:19;9.88;;;4.25;;
74259;SDS011;62630;55.874;37.516;2023-02-11T12:34:33;7.90;;;4.00;;
74259;SDS011;62630;55.874;37.516;2023-02-11T12:45:40;12.95;;;4.70;;
74259;SDS011;62630;55.874;37.516;2023-02-11T12:54:35;9.55;;;3.90;;
74259;SDS011;62630;55.874;37.516;2023-02-11T12:57:51;12.57;;;5.30;;
74259;SDS011;62630;55.874;37.516;2023-02-11T13:02:31;12.27;;;5.13;;
74259;SDS011;62630;55.874;37.516;2023-02-11T13:08:25;9.95;;;4.88;;
74259;SDS011;62630;55.874;37.516;2023-02-11T13:14:15;12.55;;;5.30;;
74259;SDS011;62630;55.874;37.516;2023-02-11T13:16:51;12.43;;;5.57;;
74259;SDS011;62630;55.874;37.516;2023-02-11T13:22:19;13.27;;;5.65;;
74259;SDS011;62630;55.874;37.516;2023-02-11T13:25:02;14.65;;;5.68;;
74259;SDS011;62630;55.874;37.516;2023-02-11T13:31:00;11.07;;;4.55;;
74259;SDS011;62630;55.874;37.516;2023-02-11T13:33:50;12.90;;;5.20;;
74259;SDS011;62630;55.874;37.516;2023-02-11T13:36:25;14.35;;;5.22;;
74259;SDS011;62630;55.874;37.516;2023-02-11T13:38:53;12.38;;;5.43;;
74259;SDS011;62630;55.874;37.516;2023-02-11T13:41:23;16.13;;;6.32;;
74259;SDS011;62630;55.874;37.516;2023-02-11T13:44:35;17.92;;;6.53;;
74259;SDS011;62630;55.874;37.516;2023-02-11T13:46:59;14.80;;;5.65;;
74259;SDS011;62630;55.874;37.516;2023-02-11T13:52:00;16.63;;;6.50;;
74259;SDS011;62630;55.874;37.516;2023-02-11T13:54:33;12.57;;;5.60;;
74259;SDS011;62630;55.874;37.516;2023-02-11T14:02:33;12.23;;;6.38;;
74259;SDS011;62630;55.874;37.516;2023-02-11T14:05:23;14.07;;;6.22;;
74259;SDS011;62630;55.874;37.516;2023-02-11T14:10:58;15.65;;;6.32;;
74259;SDS011;62630;55.874;37.516;2023-02-11T14:18:37;14.98;;;6.70;;
74259;SDS011;62630;55.874;37.516;2023-02-11T14:21:22;15.25;;;6.50;;
74259;SDS011;62630;55.874;37.516;2023-02-11T14:41:31;17.77;;;5.68;;
74259;SDS011;62630;55.874;37.516;2023-02-11T14:44:07;15.00;;;5.78;;
74259;SDS011;62630;55.874;37.516;2023-02-11T14:46:48;17.67;;;6.50;;
74259;SDS011;62630;55.874;37.516;2023-02-11T14:52:43;17.60;;;5.97;;
74259;SDS011;62630;55.874;37.516;2023-02-11T14:54:47;15.63;;;5.85;;
74259;SDS011;62630;55.874;37.516;2023-02-11T14:57:33;12.35;;;6.00;;
74259;SDS011;62630;55.874;37.516;2023-02-11T15:00:00;13.45;;;5.43;;
74259;SDS011;62630;55.874;37.516;2023-02-11T15:02:38;11.00;;;4.82;;
74259;SDS011;62630;55.874;37.516;2023-02-11T15:07:59;13.27;;;5.50;;
74259;SDS011;62630;55.874;37.516;2023-02-11T15:10:44;22.70;;;6.80;;
74259;SDS011;62630;55.874;37.516;2023-02-11T15:13:15;13.52;;;6.22;;
74259;SDS011;62630;55.874;37.516;2023-02-11T15:15:44;18.02;;;6.80;;
74259;SDS011;62630;55.874;37.516;2023-02-11T15:18:14;21.10;;;7.07;;
74259;SDS011;62630;55.874;37.516;2023-02-11T15:20:46;16.38;;;5.60;;
74259;SDS011;62630;55.874;37.516;2023-02-11T15:23:16;15.38;;;5.47;;
74259;SDS011;62630;55.874;37.516;2023-02-11T15:25:49;13.80;;;5.90;;
74259;SDS011;62630;55.874;37.516;2023-02-11T15:28:26;15.20;;;6.43;;
74259;SDS011;62630;55.874;37.516;2023-02-11T15:33:26;19.83;;;7.00;;
74259;SDS011;62630;55.874;37.516;2023-02-11T15:35:55;13.10;;;5.18;;
74259;SDS011;62630;55.874;37.516;2023-02-11T15:38:24;15.57;;;5.72;;
74259;SDS011;62630;55.874;37.516;2023-02-11T15:40:58;14.63;;;5.97;;
74259;SDS011;62630;55.874;37.516;2023-02-11T15:43:44;15.07;;;5.65;;
74259;SDS011;62630;55.874;37.516;2023-02-11T15:46:14;13.32;;;5.68;;
74259;SDS011;62630;55.874;37.516;2023-02-11T15:48:45;16.48;;;6.35;;
74259;SDS011;62630;55.874;37.516;2023-02-11T15:51:18;11.90;;;6.13;;
74259;SDS011;62630;55.874;37.516;2023-02-11T15:53:47;15.50;;;6.03;;
74259;SDS011;62630;55.874;37.516;2023-02-11T15:56:24;17.75;;;6.57;;
74259;SDS011;62630;55.874;37.516;2023-02-11T15:58:58;15.85;;;5.40;;
74259;SDS011;62630;55.874;37.516;2023-02-11T16:01:33;14.60;;;5.50;;
74259;SDS011;62630;55.874;37.516;2023-02-11T16:04:00;16.50;;;5.70;;
74259;SDS011;62630;55.874;37.516;2023-02-11T16:06:40;12.63;;;5.82;;
74259;SDS011;62630;55.874;37.516;2023-02-11T16:17:42;13.25;;;5.68;;
74259;SDS011;62630;55.874;37.516;2023-02-11T16:19:46;13.65;;;5.68;;
74259;SDS011;62630;55.874;37.516;2023-02-11T16:22:19;13.20;;;5.35;;
74259;SDS011;62630;55.874;37.516;2023-02-11T16:24:59;14.80;;;6.18;;
74259;SDS011;62630;55.874;37.516;2023-02-11T16:27:35;20.83;;;5.78;;
74259;SDS011;62630;55.874;37.516;2023-02-11T16:30:34;13.07;;;5.68;;
74259;SDS011;62630;55.874;37.516;2023-02-11T16:33:09;17.83;;;5.28;;
74259;SDS011;62630;55.874;37.516;2023-02-11T16:35:35;17.75;;;6.22;;
74259;SDS011;62630;55.874;37.516;2023-02-11T16:38:01;16.30;;;5.55;;
74259;SDS011;62630;55.874;37.516;2023-02-11T16:40:27;17.45;;;5.93;;
74259;SDS011;62630;55.874;37.516;2023-02-11T16:42:53;11.95;;;5.70;;
74259;SDS011;62630;55.874;37.516;2023-02-11T16:45:19;11.77;;;5.15;;
74259;SDS011;62630;55.874;37.516;2023-02-11T16:47:45;14.20;;;5.72;;
74259;SDS011;62630;55.874;37.516;2023-02-11T16:50:23;13.00;;;5.45;;
74259;SDS011;62630;55.874;37.516;2023-02-11T16:52:50;18.30;;;5.90;;
74259;SDS011;62630;55.874;37.516;2023-02-11T16:55:16;18.65;;;5.88;;
74259;SDS011;62630;55.874;37.516;2023-02-11T16:57:45;13.48;;;5.95;;
74259;SDS011;62630;55.874;37.516;2023-02-11T17:00:20;12.80;;;5.82;;
74259;SDS011;62630;55.874;37.516;2023-02-11T17:02:48;15.18;;;5.82;;
74259;SDS011;62630;55.874;37.516;2023-02-11T17:05:23;11.32;;;5.30;;
74259;SDS011;62630;55.874;37.516;2023-02-11T17:07:50;11.60;;;5.13;;
74259;SDS011;62630;55.874;37.516;2023-02-11T17:10:17;13.73;;;5.38;;
74259;SDS011;62630;55.874;37.516;2023-02-11T17:12:48;15.57;;;5.65;;
74259;SDS011;62630;55.874;37.516;2023-02-11T17:15:18;10.80;;;4.38;;
74259;SDS011;62630;55.874;37.516;2023-02-11T17:17:43;15.88;;;5.20;;
74259;SDS011;62630;55.874;37.516;2023-02-11T17:20:12;21.73;;;5.45;;
74259;SDS011;62630;55.874;37.516;2023-02-11T17:22:38;17.33;;;5.40;;
74259;SDS011;62630;55.874;37.516;2023-02-11T17:25:07;8.88;;;4.85;;
74259;SDS011;62630;55.874;37.516;2023-02-11T17:27:34;10.00;;;4.95;;
74259;SDS011;62630;55.874;37.516;2023-02-11T17:30:00;9.77;;;4.72;;
74259;SDS011;62630;55.874;37.516;2023-02-11T17:32:29;6.65;;;4.07;;
74259;SDS011;62630;55.874;37.516;2023-02-11T17:34:55;13.55;;;4.68;;
74259;SDS011;62630;55.874;37.516;2023-02-11T17:37:20;10.45;;;5.25;;
74259;SDS011;62630;55.874;37.516;2023-02-11T17:39:53;9.05;;;4.38;;